sensor_id;sensor_type;location;lat;lon;timestamp;temperature;humidity
38090;DHT22;23904;52.322;10.232;2023-05-09T00:01:20;12.40;82.70
38090;DHT22;23904;52.322;10.232;2023-05-09T00:03:45;12.40;82.90
38090;DHT22;23904;52.322;10.232;2023-05-09T00:06:11;12.40;83.40
38090;DHT22;23904;52.322;10.232;2023-05-09T00:08:37;12.40;83.60
38090;DHT22;23904;52.322;10.232;2023-05-09T00:11:03;12.30;83.90
38090;DHT22;23904;52.322;10.232;2023-05-09T00:13:29;12.40;84.00
38090;DHT22;23904;52.322;10.232;2023-05-09T00:15:54;12.30;84.30
38090;DHT22;23904;52.322;10.232;2023-05-09T00:18:22;12.30;84.80
38090;DHT22;23904;52.322;10.232;2023-05-09T00:20:49;12.20;85.00
38090;DHT22;23904;52.322;10.232;2023-05-09T00:23:14;12.20;85.20
38090;DHT22;23904;52.322;10.232;2023-05-09T00:25:41;12.20;85.80
38090;DHT22;23904;52.322;10.232;2023-05-09T00:28:07;12.20;86.00
38090;DHT22;23904;52.322;10.232;2023-05-09T00:30:33;12.10;86.50
38090;DHT22;23904;52.322;10.232;2023-05-09T00:32:59;12.10;86.90
38090;DHT22;23904;52.322;10.232;2023-05-09T00:35:25;12.10;86.80
38090;DHT22;23904;52.322;10.232;2023-05-09T00:37:50;12.10;87.20
38090;DHT22;23904;52.322;10.232;2023-05-09T00:40:16;12.10;87.70
38090;DHT22;23904;52.322;10.232;2023-05-09T00:42:42;12.10;87.60
38090;DHT22;23904;52.322;10.232;2023-05-09T00:45:08;12.00;88.30
38090;DHT22;23904;52.322;10.232;2023-05-09T00:47:34;12.00;89.40
38090;DHT22;23904;52.322;10.232;2023-05-09T00:50:00;11.90;89.50
38090;DHT22;23904;52.322;10.232;2023-05-09T00:52:26;11.90;90.00
38090;DHT22;23904;52.322;10.232;2023-05-09T00:54:53;11.90;90.10
38090;DHT22;23904;52.322;10.232;2023-05-09T00:57:21;11.90;90.20
38090;DHT22;23904;52.322;10.232;2023-05-09T00:59:47;11.80;90.60
38090;DHT22;23904;52.322;10.232;2023-05-09T01:02:14;11.80;90.60
38090;DHT22;23904;52.322;10.232;2023-05-09T01:04:43;11.80;90.80
38090;DHT22;23904;52.322;10.232;2023-05-09T01:07:18;11.80;91.10
38090;DHT22;23904;52.322;10.232;2023-05-09T01:10:01;11.80;91.30
38090;DHT22;23904;52.322;10.232;2023-05-09T01:13:02;11.70;91.50
38090;DHT22;23904;52.322;10.232;2023-05-09T01:15:40;11.70;91.90
38090;DHT22;23904;52.322;10.232;2023-05-09T01:18:26;11.70;92.10
38090;DHT22;23904;52.322;10.232;2023-05-09T01:21:10;11.70;92.50
38090;DHT22;23904;52.322;10.232;2023-05-09T01:26:52;11.60;93.00
38090;DHT22;23904;52.322;10.232;2023-05-09T01:29:32;11.60;93.30
38090;DHT22;23904;52.322;10.232;2023-05-09T01:32:06;11.50;93.70
38090;DHT22;23904;52.322;10.232;2023-05-09T01:34:34;11.40;94.00
38090;DHT22;23904;52.322;10.232;2023-05-09T01:37:00;11.40;94.20
38090;DHT22;23904;52.322;10.232;2023-05-09T01:39:29;11.40;94.40
38090;DHT22;23904;52.322;10.232;2023-05-09T01:41:59;11.30;94.70
38090;DHT22;23904;52.322;10.232;2023-05-09T01:44:33;11.30;95.00
38090;DHT22;23904;52.322;10.232;2023-05-09T01:47:00;11.30;95.40
38090;DHT22;23904;52.322;10.232;2023-05-09T01:49:28;11.20;95.70
38090;DHT22;23904;52.322;10.232;2023-05-09T01:51:56;11.20;95.70
38090;DHT22;23904;52.322;10.232;2023-05-09T01:54:23;11.20;96.30
38090;DHT22;23904;52.322;10.232;2023-05-09T01:56:50;11.20;96.20
38090;DHT22;23904;52.322;10.232;2023-05-09T01:59:16;11.20;96.80
38090;DHT22;23904;52.322;10.232;2023-05-09T02:01:43;11.10;96.90
38090;DHT22;23904;52.322;10.232;2023-05-09T02:04:10;11.10;97.10
38090;DHT22;23904;52.322;10.232;2023-05-09T02:06:37;11.10;97.10
38090;DHT22;23904;52.322;10.232;2023-05-09T02:09:04;11.10;97.40
38090;DHT22;23904;52.322;10.232;2023-05-09T02:11:29;11.10;97.60
38090;DHT22;23904;52.322;10.232;2023-05-09T02:13:55;11.00;97.80
38090;DHT22;23904;52.322;10.232;2023-05-09T02:16:20;11.00;97.80
38090;DHT22;23904;52.322;10.232;2023-05-09T02:18:46;11.00;98.30
38090;DHT22;23904;52.322;10.232;2023-05-09T02:21:12;10.90;98.30
38090;DHT22;23904;52.322;10.232;2023-05-09T02:23:38;10.90;98.70
38090;DHT22;23904;52.322;10.232;2023-05-09T02:26:04;10.80;99.20
38090;DHT22;23904;52.322;10.232;2023-05-09T02:28:30;10.80;99.50
38090;DHT22;23904;52.322;10.232;2023-05-09T02:31:01;10.80;99.50
38090;DHT22;23904;52.322;10.232;2023-05-09T02:33:33;10.80;99.70
38090;DHT22;23904;52.322;10.232;2023-05-09T02:36:00;10.80;99.80
38090;DHT22;23904;52.322;10.232;2023-05-09T02:38:26;10.80;99.90
38090;DHT22;23904;52.322;10.232;2023-05-09T02:40:52;10.80;99.90
38090;DHT22;23904;52.322;10.232;2023-05-09T02:43:17;10.80;99.90
38090;DHT22;23904;52.322;10.232;2023-05-09T02:45:43;10.80;99.90
38090;DHT22;23904;52.322;10.232;2023-05-09T02:48:09;10.70;99.90
38090;DHT22;23904;52.322;10.232;2023-05-09T02:50:35;10.70;99.90
38090;DHT22;23904;52.322;10.232;2023-05-09T02:53:02;10.70;99.90
38090;DHT22;23904;52.322;10.232;2023-05-09T02:55:28;10.70;99.90
38090;DHT22;23904;52.322;10.232;2023-05-09T02:57:54;10.70;99.90
38090;DHT22;23904;52.322;10.232;2023-05-09T03:00:20;10.70;99.90
38090;DHT22;23904;52.322;10.232;2023-05-09T03:02:47;10.70;99.90
38090;DHT22;23904;52.322;10.232;2023-05-09T03:05:14;10.70;99.90
38090;DHT22;23904;52.322;10.232;2023-05-09T03:07:40;10.70;99.90
38090;DHT22;23904;52.322;10.232;2023-05-09T03:10:06;10.60;99.90
38090;DHT22;23904;52.322;10.232;2023-05-09T03:12:32;10.70;99.90
38090;DHT22;23904;52.322;10.232;2023-05-09T03:14:57;10.60;99.90
38090;DHT22;23904;52.322;10.232;2023-05-09T03:17:23;10.70;99.90
38090;DHT22;23904;52.322;10.232;2023-05-09T03:19:49;10.60;99.90
38090;DHT22;23904;52.322;10.232;2023-05-09T03:22:14;10.60;99.90
38090;DHT22;23904;52.322;10.232;2023-05-09T03:24:40;10.60;99.90
38090;DHT22;23904;52.322;10.232;2023-05-09T03:27:05;10.60;99.90
38090;DHT22;23904;52.322;10.232;2023-05-09T03:29:31;10.50;99.90
38090;DHT22;23904;52.322;10.232;2023-05-09T03:31:57;10.50;99.90
38090;DHT22;23904;52.322;10.232;2023-05-09T03:34:23;10.50;99.90
38090;DHT22;23904;52.322;10.232;2023-05-09T03:36:48;10.40;99.90
38090;DHT22;23904;52.322;10.232;2023-05-09T03:39:14;10.40;99.90
38090;DHT22;23904;52.322;10.232;2023-05-09T03:41:41;10.30;99.90
38090;DHT22;23904;52.322;10.232;2023-05-09T03:44:08;10.20;99.90
38090;DHT22;23904;52.322;10.232;2023-05-09T03:46:34;10.30;99.90
38090;DHT22;23904;52.322;10.232;2023-05-09T03:48:59;10.30;99.90
38090;DHT22;23904;52.322;10.232;2023-05-09T03:51:25;10.30;99.90
38090;DHT22;23904;52.322;10.232;2023-05-09T03:53:50;10.30;99.90
38090;DHT22;23904;52.322;10.232;2023-05-09T03:56:16;10.30;99.90
38090;DHT22;23904;52.322;10.232;2023-05-09T03:58:42;10.20;99.90
38090;DHT22;23904;52.322;10.232;2023-05-09T04:01:07;10.30;99.90
38090;DHT22;23904;52.322;10.232;2023-05-09T04:03:33;10.30;99.90
38090;DHT22;23904;52.322;10.232;2023-05-09T04:05:59;10.20;99.90
38090;DHT22;23904;52.322;10.232;2023-05-09T04:08:25;10.20;99.90
38090;DHT22;23904;52.322;10.232;2023-05-09T04:10:52;10.20;99.90
38090;DHT22;23904;52.322;10.232;2023-05-09T04:13:17;10.30;99.90
38090;DHT22;23904;52.322;10.232;2023-05-09T04:15:43;10.20;99.90
38090;DHT22;23904;52.322;10.232;2023-05-09T04:18:08;10.30;99.90
38090;DHT22;23904;52.322;10.232;2023-05-09T04:20:34;10.20;99.90
38090;DHT22;23904;52.322;10.232;2023-05-09T04:23:00;10.30;99.90
38090;DHT22;23904;52.322;10.232;2023-05-09T04:25:25;10.20;99.90
38090;DHT22;23904;52.322;10.232;2023-05-09T04:27:51;10.20;99.90
38090;DHT22;23904;52.322;10.232;2023-05-09T04:30:17;10.30;99.90
38090;DHT22;23904;52.322;10.232;2023-05-09T04:32:43;10.30;99.90
38090;DHT22;23904;52.322;10.232;2023-05-09T04:35:12;10.30;99.90
38090;DHT22;23904;52.322;10.232;2023-05-09T04:37:38;10.20;99.90
38090;DHT22;23904;52.322;10.232;2023-05-09T04:40:04;10.20;99.90
38090;DHT22;23904;52.322;10.232;2023-05-09T04:42:31;10.20;99.90
38090;DHT22;23904;52.322;10.232;2023-05-09T04:45:00;10.20;99.90
38090;DHT22;23904;52.322;10.232;2023-05-09T04:47:26;10.20;99.90
38090;DHT22;23904;52.322;10.232;2023-05-09T04:49:51;10.20;99.90
38090;DHT22;23904;52.322;10.232;2023-05-09T04:52:17;10.20;99.90
38090;DHT22;23904;52.322;10.232;2023-05-09T04:54:43;10.30;99.90
38090;DHT22;23904;52.322;10.232;2023-05-09T04:57:09;10.30;99.90
38090;DHT22;23904;52.322;10.232;2023-05-09T04:59:34;10.30;99.90
38090;DHT22;23904;52.322;10.232;2023-05-09T05:02:00;10.30;99.90
38090;DHT22;23904;52.322;10.232;2023-05-09T05:04:26;10.30;99.90
38090;DHT22;23904;52.322;10.232;2023-05-09T05:06:52;10.30;99.90
38090;DHT22;23904;52.322;10.232;2023-05-09T05:09:18;10.20;99.90
38090;DHT22;23904;52.322;10.232;2023-05-09T05:11:43;10.30;99.90
38090;DHT22;23904;52.322;10.232;2023-05-09T05:14:09;10.40;99.90
38090;DHT22;23904;52.322;10.232;2023-05-09T05:16:34;10.50;99.90
38090;DHT22;23904;52.322;10.232;2023-05-09T05:19:00;10.50;99.90
38090;DHT22;23904;52.322;10.232;2023-05-09T05:21:25;10.60;99.90
38090;DHT22;23904;52.322;10.232;2023-05-09T05:23:51;10.70;99.90
38090;DHT22;23904;52.322;10.232;2023-05-09T05:26:16;10.80;99.90
38090;DHT22;23904;52.322;10.232;2023-05-09T05:28:42;10.90;99.90
38090;DHT22;23904;52.322;10.232;2023-05-09T05:31:07;10.90;99.90
38090;DHT22;23904;52.322;10.232;2023-05-09T05:33:33;11.00;99.90
38090;DHT22;23904;52.322;10.232;2023-05-09T05:35:58;11.00;99.90
38090;DHT22;23904;52.322;10.232;2023-05-09T05:38:24;11.10;99.90
38090;DHT22;23904;52.322;10.232;2023-05-09T05:40:49;11.10;99.90
38090;DHT22;23904;52.322;10.232;2023-05-09T05:43:15;11.10;99.90
38090;DHT22;23904;52.322;10.232;2023-05-09T05:45:40;11.10;99.90
38090;DHT22;23904;52.322;10.232;2023-05-09T05:48:06;11.20;99.90
38090;DHT22;23904;52.322;10.232;2023-05-09T05:50:32;11.20;99.90
38090;DHT22;23904;52.322;10.232;2023-05-09T05:52:57;11.30;99.90
38090;DHT22;23904;52.322;10.232;2023-05-09T05:55:23;11.40;99.90
38090;DHT22;23904;52.322;10.232;2023-05-09T05:57:48;11.40;99.90
38090;DHT22;23904;52.322;10.232;2023-05-09T06:00:14;11.50;99.90
38090;DHT22;23904;52.322;10.232;2023-05-09T06:02:44;11.60;99.90
38090;DHT22;23904;52.322;10.232;2023-05-09T06:05:10;11.50;99.90
38090;DHT22;23904;52.322;10.232;2023-05-09T06:07:36;11.60;99.90
38090;DHT22;23904;52.322;10.232;2023-05-09T06:10:01;11.70;99.90
38090;DHT22;23904;52.322;10.232;2023-05-09T06:12:27;11.70;99.90
38090;DHT22;23904;52.322;10.232;2023-05-09T06:14:52;11.80;99.90
38090;DHT22;23904;52.322;10.232;2023-05-09T06:17:18;11.90;99.90
38090;DHT22;23904;52.322;10.232;2023-05-09T06:19:44;12.10;99.90
38090;DHT22;23904;52.322;10.232;2023-05-09T06:22:09;12.10;99.90
38090;DHT22;23904;52.322;10.232;2023-05-09T06:24:35;12.20;99.90
38090;DHT22;23904;52.322;10.232;2023-05-09T06:27:01;12.20;99.90
38090;DHT22;23904;52.322;10.232;2023-05-09T06:29:26;12.20;99.90
38090;DHT22;23904;52.322;10.232;2023-05-09T06:31:52;12.30;99.90
38090;DHT22;23904;52.322;10.232;2023-05-09T06:34:17;12.40;99.90
38090;DHT22;23904;52.322;10.232;2023-05-09T06:36:43;12.40;99.90
38090;DHT22;23904;52.322;10.232;2023-05-09T06:39:09;12.40;99.90
38090;DHT22;23904;52.322;10.232;2023-05-09T06:41:34;12.50;99.90
38090;DHT22;23904;52.322;10.232;2023-05-09T06:44:00;12.60;99.90
38090;DHT22;23904;52.322;10.232;2023-05-09T06:46:27;12.60;99.90
38090;DHT22;23904;52.322;10.232;2023-05-09T06:48:52;12.70;99.90
38090;DHT22;23904;52.322;10.232;2023-05-09T06:51:18;12.80;99.90
38090;DHT22;23904;52.322;10.232;2023-05-09T06:53:44;12.90;99.90
38090;DHT22;23904;52.322;10.232;2023-05-09T06:56:09;13.00;99.90
38090;DHT22;23904;52.322;10.232;2023-05-09T06:58:35;13.10;99.90
38090;DHT22;23904;52.322;10.232;2023-05-09T07:01:01;13.20;99.90
38090;DHT22;23904;52.322;10.232;2023-05-09T07:03:27;13.30;99.90
38090;DHT22;23904;52.322;10.232;2023-05-09T07:05:52;13.40;99.90
38090;DHT22;23904;52.322;10.232;2023-05-09T07:08:20;13.50;99.90
38090;DHT22;23904;52.322;10.232;2023-05-09T07:10:46;13.60;99.90
38090;DHT22;23904;52.322;10.232;2023-05-09T07:13:12;13.60;99.90
38090;DHT22;23904;52.322;10.232;2023-05-09T07:15:37;13.60;99.90
38090;DHT22;23904;52.322;10.232;2023-05-09T07:18:03;13.70;99.90
38090;DHT22;23904;52.322;10.232;2023-05-09T07:20:29;13.90;99.90
38090;DHT22;23904;52.322;10.232;2023-05-09T07:22:54;14.00;99.90
38090;DHT22;23904;52.322;10.232;2023-05-09T07:25:22;14.10;99.90
38090;DHT22;23904;52.322;10.232;2023-05-09T07:27:48;14.10;99.90
38090;DHT22;23904;52.322;10.232;2023-05-09T07:30:13;14.20;99.90
38090;DHT22;23904;52.322;10.232;2023-05-09T07:32:39;14.30;99.90
38090;DHT22;23904;52.322;10.232;2023-05-09T07:35:04;14.40;99.90
38090;DHT22;23904;52.322;10.232;2023-05-09T07:37:30;14.60;99.90
38090;DHT22;23904;52.322;10.232;2023-05-09T07:39:56;14.70;99.90
38090;DHT22;23904;52.322;10.232;2023-05-09T07:42:21;14.90;99.90
38090;DHT22;23904;52.322;10.232;2023-05-09T07:44:47;15.10;99.80
38090;DHT22;23904;52.322;10.232;2023-05-09T07:47:12;15.20;98.10
38090;DHT22;23904;52.322;10.232;2023-05-09T07:49:38;15.20;98.30
38090;DHT22;23904;52.322;10.232;2023-05-09T07:52:04;15.30;98.50
38090;DHT22;23904;52.322;10.232;2023-05-09T07:54:30;15.50;98.90
38090;DHT22;23904;52.322;10.232;2023-05-09T07:56:55;15.70;98.80
38090;DHT22;23904;52.322;10.232;2023-05-09T07:59:21;15.80;99.00
38090;DHT22;23904;52.322;10.232;2023-05-09T08:01:46;16.00;98.50
38090;DHT22;23904;52.322;10.232;2023-05-09T08:04:12;16.20;97.60
38090;DHT22;23904;52.322;10.232;2023-05-09T08:06:38;16.30;97.80
38090;DHT22;23904;52.322;10.232;2023-05-09T08:09:04;16.50;97.50
38090;DHT22;23904;52.322;10.232;2023-05-09T08:11:32;16.70;97.60
38090;DHT22;23904;52.322;10.232;2023-05-09T08:13:59;16.80;96.80
38090;DHT22;23904;52.322;10.232;2023-05-09T08:16:24;17.00;96.40
38090;DHT22;23904;52.322;10.232;2023-05-09T08:18:50;17.20;96.50
38090;DHT22;23904;52.322;10.232;2023-05-09T08:21:15;17.40;95.60
38090;DHT22;23904;52.322;10.232;2023-05-09T08:23:41;17.60;95.40
38090;DHT22;23904;52.322;10.232;2023-05-09T08:26:06;18.10;95.10
38090;DHT22;23904;52.322;10.232;2023-05-09T08:28:32;18.70;93.50
38090;DHT22;23904;52.322;10.232;2023-05-09T08:30:58;19.50;92.30
38090;DHT22;23904;52.322;10.232;2023-05-09T08:33:23;20.60;89.90
38090;DHT22;23904;52.322;10.232;2023-05-09T08:35:52;21.40;85.20
38090;DHT22;23904;52.322;10.232;2023-05-09T08:38:18;22.40;78.20
38090;DHT22;23904;52.322;10.232;2023-05-09T08:40:44;23.20;72.50
38090;DHT22;23904;52.322;10.232;2023-05-09T08:43:10;23.40;70.10
38090;DHT22;23904;52.322;10.232;2023-05-09T08:45:49;24.00;67.40
38090;DHT22;23904;52.322;10.232;2023-05-09T08:48:18;24.30;64.90
38090;DHT22;23904;52.322;10.232;2023-05-09T08:50:44;24.40;61.70
38090;DHT22;23904;52.322;10.232;2023-05-09T08:53:10;25.00;59.80
38090;DHT22;23904;52.322;10.232;2023-05-09T08:55:36;25.50;58.50
38090;DHT22;23904;52.322;10.232;2023-05-09T08:58:02;26.60;57.80
38090;DHT22;23904;52.322;10.232;2023-05-09T09:00:28;27.20;55.40
38090;DHT22;23904;52.322;10.232;2023-05-09T09:02:59;27.80;54.50
38090;DHT22;23904;52.322;10.232;2023-05-09T09:05:27;28.30;53.30
38090;DHT22;23904;52.322;10.232;2023-05-09T09:07:56;28.70;50.90
38090;DHT22;23904;52.322;10.232;2023-05-09T09:10:23;29.10;50.40
38090;DHT22;23904;52.322;10.232;2023-05-09T09:12:52;28.70;49.40
38090;DHT22;23904;52.322;10.232;2023-05-09T09:15:19;28.70;49.90
38090;DHT22;23904;52.322;10.232;2023-05-09T09:17:47;28.70;50.00
38090;DHT22;23904;52.322;10.232;2023-05-09T09:20:17;29.30;48.50
38090;DHT22;23904;52.322;10.232;2023-05-09T09:22:43;29.50;47.60
38090;DHT22;23904;52.322;10.232;2023-05-09T09:25:12;29.10;47.30
38090;DHT22;23904;52.322;10.232;2023-05-09T09:27:37;29.30;47.20
38090;DHT22;23904;52.322;10.232;2023-05-09T09:30:07;29.40;48.00
38090;DHT22;23904;52.322;10.232;2023-05-09T09:32:35;29.40;47.60
38090;DHT22;23904;52.322;10.232;2023-05-09T09:35:05;29.70;47.80
38090;DHT22;23904;52.322;10.232;2023-05-09T09:37:37;29.70;46.90
38090;DHT22;23904;52.322;10.232;2023-05-09T09:40:06;29.90;47.30
38090;DHT22;23904;52.322;10.232;2023-05-09T09:42:44;30.00;47.00
38090;DHT22;23904;52.322;10.232;2023-05-09T09:45:14;30.70;46.00
38090;DHT22;23904;52.322;10.232;2023-05-09T09:47:42;30.30;46.60
38090;DHT22;23904;52.322;10.232;2023-05-09T09:50:10;30.20;46.90
38090;DHT22;23904;52.322;10.232;2023-05-09T09:52:51;30.50;46.70
38090;DHT22;23904;52.322;10.232;2023-05-09T09:55:19;30.30;46.30
38090;DHT22;23904;52.322;10.232;2023-05-09T09:57:45;30.50;45.80
38090;DHT22;23904;52.322;10.232;2023-05-09T10:00:17;30.30;46.50
38090;DHT22;23904;52.322;10.232;2023-05-09T10:02:58;30.90;46.00
38090;DHT22;23904;52.322;10.232;2023-05-09T10:05:25;30.90;45.80
38090;DHT22;23904;52.322;10.232;2023-05-09T10:07:58;30.80;45.80
38090;DHT22;23904;52.322;10.232;2023-05-09T10:10:29;30.50;46.20
38090;DHT22;23904;52.322;10.232;2023-05-09T10:12:57;31.00;46.00
38090;DHT22;23904;52.322;10.232;2023-05-09T10:15:27;30.90;45.00
38090;DHT22;23904;52.322;10.232;2023-05-09T10:17:56;30.70;45.90
38090;DHT22;23904;52.322;10.232;2023-05-09T10:20:23;31.30;44.80
38090;DHT22;23904;52.322;10.232;2023-05-09T10:22:55;31.80;44.00
38090;DHT22;23904;52.322;10.232;2023-05-09T10:25:27;31.50;44.10
38090;DHT22;23904;52.322;10.232;2023-05-09T10:28:10;31.60;44.30
38090;DHT22;23904;52.322;10.232;2023-05-09T10:31:02;31.80;43.90
38090;DHT22;23904;52.322;10.232;2023-05-09T10:33:42;31.40;44.50
38090;DHT22;23904;52.322;10.232;2023-05-09T10:36:12;32.00;44.10
38090;DHT22;23904;52.322;10.232;2023-05-09T10:38:42;32.20;44.00
38090;DHT22;23904;52.322;10.232;2023-05-09T10:41:09;32.00;43.40
38090;DHT22;23904;52.322;10.232;2023-05-09T10:43:35;31.90;43.20
38090;DHT22;23904;52.322;10.232;2023-05-09T10:46:04;31.70;43.20
38090;DHT22;23904;52.322;10.232;2023-05-09T10:48:31;31.20;44.30
38090;DHT22;23904;52.322;10.232;2023-05-09T10:50:59;31.00;44.40
38090;DHT22;23904;52.322;10.232;2023-05-09T10:53:46;30.90;44.80
38090;DHT22;23904;52.322;10.232;2023-05-09T10:56:27;30.70;44.90
38090;DHT22;23904;52.322;10.232;2023-05-09T10:58:54;30.40;46.40
38090;DHT22;23904;52.322;10.232;2023-05-09T11:01:36;30.60;45.20
38090;DHT22;23904;52.322;10.232;2023-05-09T11:09:34;31.00;45.00
38090;DHT22;23904;52.322;10.232;2023-05-09T11:17:04;31.10;44.70
38090;DHT22;23904;52.322;10.232;2023-05-09T11:22:15;31.30;44.60
38090;DHT22;23904;52.322;10.232;2023-05-09T11:24:49;31.00;44.80
38090;DHT22;23904;52.322;10.232;2023-05-09T11:27:42;30.90;44.40
38090;DHT22;23904;52.322;10.232;2023-05-09T11:30:11;30.90;45.00
38090;DHT22;23904;52.322;10.232;2023-05-09T11:35:14;30.10;45.90
38090;DHT22;23904;52.322;10.232;2023-05-09T11:38:06;29.60;46.90
38090;DHT22;23904;52.322;10.232;2023-05-09T11:40:33;30.20;46.40
38090;DHT22;23904;52.322;10.232;2023-05-09T11:42:59;30.40;45.60
38090;DHT22;23904;52.322;10.232;2023-05-09T11:45:30;30.40;45.80
38090;DHT22;23904;52.322;10.232;2023-05-09T11:47:57;30.30;45.60
38090;DHT22;23904;52.322;10.232;2023-05-09T11:50:23;30.10;46.50
38090;DHT22;23904;52.322;10.232;2023-05-09T11:52:49;29.30;47.00
38090;DHT22;23904;52.322;10.232;2023-05-09T11:55:16;29.00;47.40
38090;DHT22;23904;52.322;10.232;2023-05-09T11:57:51;28.70;48.10
38090;DHT22;23904;52.322;10.232;2023-05-09T12:00:22;28.20;49.00
38090;DHT22;23904;52.322;10.232;2023-05-09T12:02:49;27.20;50.60
38090;DHT22;23904;52.322;10.232;2023-05-09T12:05:20;26.80;51.80
38090;DHT22;23904;52.322;10.232;2023-05-09T12:07:47;26.10;53.00
38090;DHT22;23904;52.322;10.232;2023-05-09T12:10:14;25.60;54.00
38090;DHT22;23904;52.322;10.232;2023-05-09T12:12:47;25.50;54.50
38090;DHT22;23904;52.322;10.232;2023-05-09T12:15:14;25.40;55.30
38090;DHT22;23904;52.322;10.232;2023-05-09T12:17:41;25.30;55.40
38090;DHT22;23904;52.322;10.232;2023-05-09T12:20:08;25.40;55.20
38090;DHT22;23904;52.322;10.232;2023-05-09T12:22:34;25.90;54.90
38090;DHT22;23904;52.322;10.232;2023-05-09T12:25:08;25.80;53.90
38090;DHT22;23904;52.322;10.232;2023-05-09T12:27:35;26.20;53.40
38090;DHT22;23904;52.322;10.232;2023-05-09T12:30:03;26.40;53.70
38090;DHT22;23904;52.322;10.232;2023-05-09T12:32:32;26.80;53.10
38090;DHT22;23904;52.322;10.232;2023-05-09T12:34:59;27.00;52.50
38090;DHT22;23904;52.322;10.232;2023-05-09T12:37:24;27.30;52.30
38090;DHT22;23904;52.322;10.232;2023-05-09T12:42:33;27.80;51.10
38090;DHT22;23904;52.322;10.232;2023-05-09T12:45:03;27.90;50.90
38090;DHT22;23904;52.322;10.232;2023-05-09T12:47:30;28.10;50.20
38090;DHT22;23904;52.322;10.232;2023-05-09T12:50:06;27.70;50.40
38090;DHT22;23904;52.322;10.232;2023-05-09T12:52:36;27.20;51.70
38090;DHT22;23904;52.322;10.232;2023-05-09T12:55:11;26.60;52.20
38090;DHT22;23904;52.322;10.232;2023-05-09T12:57:38;25.90;53.20
38090;DHT22;23904;52.322;10.232;2023-05-09T13:00:07;25.40;54.20
38090;DHT22;23904;52.322;10.232;2023-05-09T13:02:39;25.00;54.90
38090;DHT22;23904;52.322;10.232;2023-05-09T13:05:09;24.60;55.30
38090;DHT22;23904;52.322;10.232;2023-05-09T13:07:40;24.30;56.70
38090;DHT22;23904;52.322;10.232;2023-05-09T13:10:22;24.20;56.70
38090;DHT22;23904;52.322;10.232;2023-05-09T13:12:50;24.20;57.40
38090;DHT22;23904;52.322;10.232;2023-05-09T13:15:18;24.30;57.60
38090;DHT22;23904;52.322;10.232;2023-05-09T13:17:51;24.30;57.30
38090;DHT22;23904;52.322;10.232;2023-05-09T13:20:18;24.20;57.50
38090;DHT22;23904;52.322;10.232;2023-05-09T13:22:44;24.00;57.80
38090;DHT22;23904;52.322;10.232;2023-05-09T13:25:10;23.90;57.90
38090;DHT22;23904;52.322;10.232;2023-05-09T13:27:37;24.00;58.00
38090;DHT22;23904;52.322;10.232;2023-05-09T13:30:03;23.90;58.50
38090;DHT22;23904;52.322;10.232;2023-05-09T13:32:32;24.00;58.20
38090;DHT22;23904;52.322;10.232;2023-05-09T13:34:58;24.00;58.00
38090;DHT22;23904;52.322;10.232;2023-05-09T13:37:23;23.80;58.60
38090;DHT22;23904;52.322;10.232;2023-05-09T13:39:50;23.70;58.70
38090;DHT22;23904;52.322;10.232;2023-05-09T13:42:16;23.80;59.10
38090;DHT22;23904;52.322;10.232;2023-05-09T13:44:41;24.00;58.80
38090;DHT22;23904;52.322;10.232;2023-05-09T13:47:07;23.90;58.30
38090;DHT22;23904;52.322;10.232;2023-05-09T13:49:33;23.70;58.50
38090;DHT22;23904;52.322;10.232;2023-05-09T13:51:59;23.60;59.40
38090;DHT22;23904;52.322;10.232;2023-05-09T13:54:25;23.50;59.30
38090;DHT22;23904;52.322;10.232;2023-05-09T13:56:51;23.50;59.20
38090;DHT22;23904;52.322;10.232;2023-05-09T13:59:17;23.40;59.40
38090;DHT22;23904;52.322;10.232;2023-05-09T14:01:43;23.30;59.50
38090;DHT22;23904;52.322;10.232;2023-05-09T14:04:08;23.10;60.20
38090;DHT22;23904;52.322;10.232;2023-05-09T14:06:34;23.10;60.00
38090;DHT22;23904;52.322;10.232;2023-05-09T14:09:00;23.00;60.00
38090;DHT22;23904;52.322;10.232;2023-05-09T14:11:26;23.00;60.40
38090;DHT22;23904;52.322;10.232;2023-05-09T14:13:51;22.90;60.90
38090;DHT22;23904;52.322;10.232;2023-05-09T14:16:18;23.10;60.50
38090;DHT22;23904;52.322;10.232;2023-05-09T14:18:44;23.00;60.80
38090;DHT22;23904;52.322;10.232;2023-05-09T14:21:09;23.00;60.70
38090;DHT22;23904;52.322;10.232;2023-05-09T14:23:35;23.00;60.60
38090;DHT22;23904;52.322;10.232;2023-05-09T14:26:01;22.90;60.70
38090;DHT22;23904;52.322;10.232;2023-05-09T14:28:26;22.90;60.90
38090;DHT22;23904;52.322;10.232;2023-05-09T14:30:52;22.80;60.30
38090;DHT22;23904;52.322;10.232;2023-05-09T14:33:18;22.90;61.20
38090;DHT22;23904;52.322;10.232;2023-05-09T14:35:43;23.00;61.30
38090;DHT22;23904;52.322;10.232;2023-05-09T14:38:09;23.00;61.10
38090;DHT22;23904;52.322;10.232;2023-05-09T14:40:34;23.00;60.30
38090;DHT22;23904;52.322;10.232;2023-05-09T14:43:01;23.00;60.60
38090;DHT22;23904;52.322;10.232;2023-05-09T14:45:27;22.90;60.40
38090;DHT22;23904;52.322;10.232;2023-05-09T14:47:53;23.00;60.80
38090;DHT22;23904;52.322;10.232;2023-05-09T14:50:20;23.00;60.70
38090;DHT22;23904;52.322;10.232;2023-05-09T14:52:46;23.00;60.70
38090;DHT22;23904;52.322;10.232;2023-05-09T14:55:12;23.00;60.80
38090;DHT22;23904;52.322;10.232;2023-05-09T14:57:38;23.00;60.30
38090;DHT22;23904;52.322;10.232;2023-05-09T15:00:04;23.00;59.70
38090;DHT22;23904;52.322;10.232;2023-05-09T15:02:30;23.00;60.10
38090;DHT22;23904;52.322;10.232;2023-05-09T15:04:55;23.10;59.60
38090;DHT22;23904;52.322;10.232;2023-05-09T15:07:21;23.00;59.50
38090;DHT22;23904;52.322;10.232;2023-05-09T15:09:47;22.90;60.30
38090;DHT22;23904;52.322;10.232;2023-05-09T15:12:12;22.70;59.80
38090;DHT22;23904;52.322;10.232;2023-05-09T15:14:38;22.50;59.90
38090;DHT22;23904;52.322;10.232;2023-05-09T15:17:04;22.50;60.90
38090;DHT22;23904;52.322;10.232;2023-05-09T15:19:30;22.50;60.70
38090;DHT22;23904;52.322;10.232;2023-05-09T15:21:58;22.40;60.60
38090;DHT22;23904;52.322;10.232;2023-05-09T15:24:25;22.30;60.50
38090;DHT22;23904;52.322;10.232;2023-05-09T15:26:51;22.20;61.30
38090;DHT22;23904;52.322;10.232;2023-05-09T15:29:18;22.20;61.20
38090;DHT22;23904;52.322;10.232;2023-05-09T15:31:44;22.20;61.20
38090;DHT22;23904;52.322;10.232;2023-05-09T15:34:10;22.10;61.70
38090;DHT22;23904;52.322;10.232;2023-05-09T15:36:35;22.00;61.50
38090;DHT22;23904;52.322;10.232;2023-05-09T15:39:01;21.90;61.50